Clodine, Texas
Current Conditions -  °F | °C
As of 1:28 PM on Saturday 20 Dec 2014 (Local Time) from KSGR Reporting Station
Overcast Overcast  
Wind Chill: 55°   Ceiling: 1500
Heat Index: 55°   Visibility: 10mi
Dew Point: 49°   Wind: 9mph
Humidity: 80%   Direction: 30°NNE
Pressure: 30.15"   Gusts: NA
Location:  29.4892°N, 95.6914°W
Report Text: KSGR 201928Z 03008KT 10SM OVC015 13/09 A3015 RMK AO2 T01280094
Loading
Personal Weather Stations






























Interactive Weather Map New forecast layout! Learn more

10-Day Weather Forecast

Advertisements
Track Severe Weather on mobile